createdAt,value
2019-03-13T00:02:05.239Z,100011.72
2019-03-13T00:04:34.699Z,100011.27
2019-03-13T00:07:04.189Z,100007.39
2019-03-13T00:09:33.681Z,100003.66
2019-03-13T00:12:03.172Z,99989.58
2019-03-13T00:14:32.664Z,99976.33
2019-03-13T00:17:02.122Z,99978.98
2019-03-13T00:19:31.615Z,99965.98
2019-03-13T00:22:01.172Z,99962.41
2019-03-13T00:24:30.866Z,99965.29
2019-03-13T00:27:00.331Z,99957.67
2019-03-13T00:29:29.820Z,99962.80
2019-03-13T00:31:59.716Z,99957.53
2019-03-13T00:34:29.356Z,99960.27
2019-03-13T00:36:58.820Z,99951.36
2019-03-13T00:39:28.313Z,99949.01
2019-03-13T00:41:57.872Z,99941.00
2019-03-13T00:44:27.363Z,99941.39
2019-03-13T00:46:56.829Z,99928.91
2019-03-13T00:49:26.321Z,99924.42
2019-03-13T00:51:55.712Z,99916.36
2019-03-13T00:54:25.210Z,99913.62
2019-03-13T00:56:54.614Z,99908.59
2019-03-13T00:59:24.112Z,99896.63
2019-03-13T01:02:03.805Z,99903.93
2019-03-13T01:04:40.556Z,99894.52
2019-03-13T01:07:10.017Z,99896.47
2019-03-13T01:09:39.440Z,99879.66
2019-03-13T01:12:09.224Z,99875.02
2019-03-13T01:14:38.716Z,99867.02
2019-03-13T01:17:08.581Z,99858.50
2019-03-13T01:19:38.439Z,99859.11
2019-03-13T01:22:07.908Z,99849.15
2019-03-13T01:24:37.324Z,99850.30
2019-03-13T01:27:06.715Z,99843.28
2019-03-13T01:29:36.141Z,99822.58
2019-03-13T01:32:09.999Z,99823.42
2019-03-13T01:34:46.557Z,99812.07
2019-03-13T01:37:15.951Z,99807.68
2019-03-13T01:39:45.364Z,99795.48
2019-03-13T01:42:14.779Z,99789.41
2019-03-13T01:44:44.176Z,99789.61
2019-03-13T01:47:13.598Z,99782.23
2019-03-13T01:49:42.989Z,99770.88
2019-03-13T01:52:12.407Z,99761.56
2019-03-13T01:54:42.072Z,99750.47
2019-03-13T01:57:11.491Z,99750.77
2019-03-13T01:59:40.881Z,99745.52
2019-03-13T02:02:10.347Z,99736.00
2019-03-13T02:04:39.799Z,99738.50
2019-03-13T02:07:09.230Z,99723.26
2019-03-13T02:09:39.234Z,99724.32
2019-03-13T02:12:08.744Z,99723.38
2019-03-13T02:14:38.147Z,99707.95
2019-03-13T02:17:07.636Z,99709.08
2019-03-13T02:19:37.097Z,99699.92
2019-03-13T02:22:06.581Z,99694.74
2019-03-13T02:24:36.400Z,99695.06
2019-03-13T02:27:05.888Z,99688.87
2019-03-13T02:29:35.385Z,99682.69
2019-03-13T02:32:04.798Z,99675.28
2019-03-13T02:34:34.253Z,99676.89
2019-03-13T02:37:03.687Z,99672.84
2019-03-13T02:39:33.143Z,99673.75
2019-03-13T02:42:02.556Z,99665.08
2019-03-13T02:44:32.027Z,99659.89
2019-03-13T02:47:01.444Z,99652.94
2019-03-13T02:49:30.843Z,99652.70
2019-03-13T02:52:00.276Z,99653.44
2019-03-13T02:54:29.731Z,99641.11
2019-03-13T02:56:59.145Z,99641.21
2019-03-13T02:59:28.544Z,99642.89
2019-03-13T03:01:59.598Z,99664.34
2019-03-13T03:04:29.048Z,99655.52
2019-03-13T03:06:58.552Z,99654.55
2019-03-13T03:09:28.177Z,99650.66
2019-03-13T03:11:57.589Z,99647.90
2019-03-13T03:14:27.023Z,99655.67
2019-03-13T03:16:56.418Z,99647.52
2019-03-13T03:19:25.851Z,99647.70
2019-03-13T03:21:55.319Z,99643.81
2019-03-13T03:24:24.751Z,99648.47
2019-03-13T03:26:54.201Z,99641.83
2019-03-13T03:29:24.414Z,99642.28
2019-03-13T03:31:53.859Z,99644.31
2019-03-13T03:34:23.270Z,99638.12
2019-03-13T03:36:52.702Z,99637.94
2019-03-13T03:39:22.114Z,99632.59
2019-03-13T03:41:51.466Z,99625.34
2019-03-13T03:44:20.803Z,99633.88
2019-03-13T03:46:50.154Z,99623.80
2019-03-13T03:49:19.484Z,99634.45
2019-03-13T03:51:48.911Z,99622.97
2019-03-13T03:54:18.595Z,99623.70
2019-03-13T03:56:47.931Z,99629.65
2019-03-13T03:59:17.308Z,99621.32
2019-03-13T04:01:46.635Z,99614.56
2019-03-13T04:04:16.088Z,99612.92
2019-03-13T04:06:45.478Z,99604.59
2019-03-13T04:09:14.928Z,99606.16
2019-03-13T04:11:44.255Z,99604.87
2019-03-13T04:14:13.621Z,99605.25
2019-03-13T04:16:42.951Z,99603.22
2019-03-13T04:19:12.384Z,99605.45
2019-03-13T04:24:10.302Z,99595.09
2019-03-13T04:26:39.704Z,99606.75
2019-03-13T04:29:09.073Z,99605.28
2019-03-13T04:31:38.511Z,99607.23
2019-03-13T04:34:08.386Z,99606.50
2019-03-13T04:36:37.714Z,99606.31
2019-03-13T04:39:07.139Z,99611.70
2019-03-13T04:41:36.475Z,99616.61
2019-03-13T04:44:05.859Z,99619.47
2019-03-13T04:46:35.187Z,99614.95
2019-03-13T04:49:04.626Z,99618.31
2019-03-13T04:51:33.957Z,99625.06
2019-03-13T04:54:03.403Z,99633.50
2019-03-13T04:56:32.738Z,99639.23
2019-03-13T04:59:02.113Z,99639.59
2019-03-13T05:01:31.527Z,99630.44
2019-03-13T05:04:00.889Z,99631.00
2019-03-13T05:06:30.304Z,99630.23
2019-03-13T05:09:00.404Z,99628.66
2019-03-13T05:11:29.811Z,99628.31
2019-03-13T05:13:59.189Z,99628.01
2019-03-13T05:16:28.522Z,99618.31
2019-03-13T05:18:57.965Z,99621.63
2019-03-13T05:21:27.301Z,99626.16
2019-03-13T05:23:56.731Z,99634.05
2019-03-13T05:26:26.068Z,99638.46
2019-03-13T05:28:55.518Z,99639.59
2019-03-13T05:31:24.879Z,99645.97
2019-03-13T05:33:54.244Z,99661.03
2019-03-13T05:36:23.594Z,99666.95
2019-03-13T05:38:53.035Z,99675.11
2019-03-13T05:41:22.442Z,99680.82
2019-03-13T05:43:51.874Z,99693.88
2019-03-13T05:46:21.206Z,99694.05
2019-03-13T05:48:50.569Z,99698.29
2019-03-13T05:51:19.969Z,99712.60
2019-03-13T05:53:49.335Z,99718.68
2019-03-13T05:56:18.665Z,99710.80
2019-03-13T05:58:48.034Z,99717.96
2019-03-13T06:01:17.443Z,99710.08
2019-03-13T06:03:51.828Z,99706.91
2019-03-13T06:06:21.177Z,99705.11
2019-03-13T06:08:50.686Z,99703.07
2019-03-13T06:11:20.020Z,99699.36
2019-03-13T06:13:49.621Z,99707.41
2019-03-13T06:16:19.037Z,99706.95
2019-03-13T06:18:48.672Z,99717.15
2019-03-13T06:21:18.229Z,99713.44
2019-03-13T06:23:48.118Z,99723.23
2019-03-13T06:26:17.492Z,99721.20
2019-03-13T06:28:47.165Z,99727.58
2019-03-13T06:31:16.541Z,99736.64
2019-03-13T06:33:45.912Z,99731.84
2019-03-13T06:36:15.331Z,99738.16
2019-03-13T06:38:44.665Z,99732.42
2019-03-13T06:41:14.052Z,99739.28
2019-03-13T06:43:43.384Z,99736.69
2019-03-13T06:46:14.598Z,99739.73
2019-03-13T06:48:44.001Z,99735.39
2019-03-13T06:51:13.455Z,99751.22
2019-03-13T06:53:43.090Z,99767.61
2019-03-13T06:56:12.519Z,99766.38
2019-03-13T06:58:49.434Z,99760.16
2019-03-13T07:01:23.236Z,99758.70
2019-03-13T07:04:09.710Z,99762.14
2019-03-13T07:06:40.682Z,99767.84
2019-03-13T07:09:12.515Z,99759.16
2019-03-13T07:11:52.677Z,99765.34
2019-03-13T07:14:29.721Z,99765.53
2019-03-13T07:17:12.236Z,99771.95
2019-03-13T07:19:43.266Z,99790.47
2019-03-13T07:22:20.051Z,99791.27
2019-03-13T07:25:02.951Z,99784.56
2019-03-13T07:27:39.563Z,99787.73
2019-03-13T07:30:14.027Z,99798.65
2019-03-13T07:32:47.699Z,99792.07
2019-03-13T07:35:21.417Z,99797.09
2019-03-13T07:37:58.515Z,99804.50
2019-03-13T07:40:32.319Z,99802.78
2019-03-13T07:43:19.270Z,99809.02
2019-03-13T07:45:50.359Z,99814.33
2019-03-13T07:48:33.289Z,99815.77
2019-03-13T07:51:11.239Z,99820.93
2019-03-13T07:53:51.018Z,99820.48
2019-03-13T07:56:22.095Z,99825.17
2019-03-13T07:58:53.138Z,99828.38
2019-03-13T08:01:33.093Z,99826.32
2019-03-13T08:04:09.818Z,99832.80
2019-03-13T08:06:47.278Z,99835.24
2019-03-13T08:09:20.939Z,99833.98
2019-03-13T08:11:53.698Z,99833.14
2019-03-13T08:14:30.698Z,99831.03
2019-03-13T08:17:07.504Z,99845.70
2019-03-13T08:19:44.196Z,99845.33
2019-03-13T08:22:31.448Z,99841.97
2019-03-13T08:25:14.506Z,99853.95
2019-03-13T08:27:48.934Z,99857.34
2019-03-13T08:30:20.512Z,99856.04
2019-03-13T08:32:54.653Z,99864.38
2019-03-13T08:35:25.703Z,99872.64
2019-03-13T08:38:00.232Z,99871.61
2019-03-13T08:40:36.880Z,99864.59
2019-03-13T08:43:16.901Z,99883.84
2019-03-13T08:46:08.790Z,99884.27
2019-03-13T08:48:55.789Z,99879.90
2019-03-13T08:51:26.831Z,99883.42
2019-03-13T08:54:15.527Z,99886.91
2019-03-13T08:57:04.385Z,99891.41
2019-03-13T08:59:39.979Z,99894.34
2019-03-13T09:02:16.708Z,99900.30
2019-03-13T09:04:53.487Z,99900.53
2019-03-13T09:07:40.439Z,99895.70
2019-03-13T09:10:30.842Z,99892.84
2019-03-13T09:13:03.686Z,99897.72
2019-03-13T09:15:51.827Z,99916.75
2019-03-13T09:18:22.820Z,99908.27
2019-03-13T09:21:05.967Z,99905.69
2019-03-13T09:23:44.336Z,99909.17
2019-03-13T09:26:28.711Z,99915.05
2019-03-13T09:29:15.722Z,99942.45
2019-03-13T09:32:03.248Z,99937.66
2019-03-13T09:34:49.603Z,99948.72
2019-03-13T09:37:20.936Z,99935.92
2019-03-13T09:40:07.639Z,99940.91
2019-03-13T09:42:53.575Z,99935.86
2019-03-13T09:45:27.727Z,99939.19
2019-03-13T09:48:10.322Z,99947.31
2019-03-13T09:50:41.455Z,99958.70
2019-03-13T09:53:27.356Z,99944.64
2019-03-13T09:56:15.895Z,99951.09
2019-03-13T09:58:48.352Z,99952.66
2019-03-13T10:01:22.277Z,99956.42
2019-03-13T10:03:56.310Z,99945.74
2019-03-13T10:06:42.098Z,99958.75
2019-03-13T10:09:13.178Z,99953.25
2019-03-13T10:11:47.082Z,99941.92
2019-03-13T10:14:27.207Z,99936.41
2019-03-13T10:17:10.923Z,99936.17
2019-03-13T10:19:47.621Z,99942.92
2019-03-13T10:22:34.592Z,99949.02
2019-03-13T10:25:15.308Z,99943.09
2019-03-13T10:27:46.409Z,99943.70
2019-03-13T10:30:21.900Z,99944.20
2019-03-13T10:33:09.336Z,99957.66
2019-03-13T10:35:45.809Z,99945.61
2019-03-13T10:38:32.993Z,99951.08
2019-03-13T10:41:19.904Z,99954.16
2019-03-13T10:43:50.915Z,99960.09
2019-03-13T10:46:24.683Z,99951.35
2019-03-13T10:48:55.729Z,99952.52
2019-03-13T10:51:28.962Z,99949.30
2019-03-13T10:54:02.831Z,99937.01
2019-03-13T10:56:33.922Z,99942.65
2019-03-13T10:59:07.813Z,99947.50
2019-03-13T11:01:51.426Z,99945.42
2019-03-13T11:04:23.506Z,99946.69
2019-03-13T11:06:55.494Z,99949.47
2019-03-13T11:09:44.466Z,99949.00
2019-03-13T11:12:17.919Z,99948.97
2019-03-13T11:14:52.010Z,99930.63
2019-03-13T11:17:26.179Z,99929.95
2019-03-13T11:20:06.268Z,99928.95
2019-03-13T11:22:39.879Z,99938.42
2019-03-13T11:25:28.851Z,99942.21
2019-03-13T11:28:16.006Z,99940.97
2019-03-13T11:30:58.808Z,99949.20
2019-03-13T11:33:29.841Z,99957.31
2019-03-13T11:36:03.965Z,99939.48
2019-03-13T11:38:40.699Z,99935.38
2019-03-13T11:41:20.341Z,99943.61
2019-03-13T11:43:51.351Z,99925.37
2019-03-13T11:46:22.393Z,99919.90
2019-03-13T11:48:56.124Z,99931.02
2019-03-13T11:51:45.000Z,99928.95
2019-03-13T11:54:25.110Z,99915.06
2019-03-13T11:57:02.138Z,99902.59
2019-03-13T11:59:42.093Z,99907.16
2019-03-13T12:02:29.427Z,99908.01
2019-03-13T12:05:06.534Z,99900.31
2019-03-13T12:07:45.051Z,99896.34
2019-03-13T12:10:16.123Z,99886.84
2019-03-13T12:12:56.251Z,99894.01
2019-03-13T12:15:27.259Z,99889.45
2019-03-13T12:17:58.435Z,99897.44
2019-03-13T12:20:29.399Z,99891.39
2019-03-13T12:23:16.386Z,99880.16
2019-03-13T12:25:47.472Z,99887.72
2019-03-13T12:28:24.260Z,99888.02
2019-03-13T12:30:55.358Z,99875.98
2019-03-13T12:33:32.368Z,99884.05
2019-03-13T12:36:19.765Z,99880.17
2019-03-13T12:38:53.755Z,99890.80
2019-03-13T12:41:34.970Z,99886.59
2019-03-13T12:44:18.334Z,99874.30
2019-03-13T12:47:07.468Z,99879.22
2019-03-13T12:49:56.620Z,99865.97
2019-03-13T12:52:43.671Z,99868.34
2019-03-13T12:55:17.320Z,99878.31
2019-03-13T12:58:04.567Z,99874.80
2019-03-13T13:00:35.617Z,99876.23
2019-03-13T13:03:06.626Z,99880.70
2019-03-13T13:05:42.043Z,99872.53
2019-03-13T13:08:15.768Z,99881.98
2019-03-13T13:10:55.511Z,99875.09
2019-03-13T13:13:35.394Z,99892.92
2019-03-13T13:16:09.166Z,99869.33
2019-03-13T13:18:48.708Z,99858.73
2019-03-13T13:21:18.218Z,99849.63
2019-03-13T13:23:47.748Z,99846.81
2019-03-13T13:26:17.225Z,99845.59
2019-03-13T13:28:46.603Z,99851.56
2019-03-13T13:31:16.003Z,99851.48
2019-03-13T13:33:45.447Z,99849.36
2019-03-13T13:36:14.851Z,99849.92
2019-03-13T13:38:44.292Z,99843.77
2019-03-13T13:41:15.150Z,99837.66
2019-03-13T13:43:45.754Z,99827.28
2019-03-13T13:46:18.421Z,99830.89
2019-03-13T13:48:48.826Z,99838.72
2019-03-13T13:51:18.230Z,99837.06
2019-03-13T13:53:47.743Z,99844.17
2019-03-13T13:56:17.155Z,99846.55
2019-03-13T13:58:49.423Z,99835.49
2019-03-13T14:01:18.834Z,99833.05
2019-03-13T14:03:48.477Z,99849.91
2019-03-13T14:06:17.886Z,99833.45
2019-03-13T14:08:47.339Z,99838.23
2019-03-13T14:11:16.745Z,99834.48
2019-03-13T14:13:46.507Z,99842.09
2019-03-13T14:16:15.879Z,99849.01
2019-03-13T14:18:45.216Z,99839.99
2019-03-13T14:21:14.594Z,99831.69
2019-03-13T14:23:43.995Z,99830.63
2019-03-13T14:26:13.424Z,99824.80
2019-03-13T14:28:43.462Z,99837.39
2019-03-13T14:31:13.515Z,99836.86
2019-03-13T14:33:43.326Z,99828.28
2019-03-13T14:36:12.695Z,99825.45
2019-03-13T14:38:42.109Z,99832.96
2019-03-13T14:41:11.606Z,99829.76
2019-03-13T14:43:41.016Z,99823.68
2019-03-13T14:46:10.475Z,99813.39
2019-03-13T14:48:39.888Z,99826.50
2019-03-13T14:51:09.335Z,99817.25
2019-03-13T14:53:38.744Z,99817.41
2019-03-13T14:56:08.533Z,99822.84
2019-03-13T14:58:37.866Z,99824.88
2019-03-13T15:01:07.254Z,99819.17
2019-03-13T15:03:36.664Z,99831.31
2019-03-13T15:06:06.115Z,99820.48
2019-03-13T15:08:35.520Z,99811.80
2019-03-13T15:11:04.887Z,99813.83
2019-03-13T15:13:34.242Z,99813.59
2019-03-13T15:16:03.637Z,99821.92
2019-03-13T15:18:33.055Z,99814.07
2019-03-13T15:21:03.342Z,99824.63
2019-03-13T15:23:32.782Z,99824.17
2019-03-13T15:26:02.157Z,99821.05
2019-03-13T15:28:31.578Z,99825.33
2019-03-13T15:31:00.958Z,99819.46
2019-03-13T15:33:30.372Z,99811.99
2019-03-13T15:35:59.820Z,99817.31
2019-03-13T15:38:29.240Z,99816.24
2019-03-13T15:40:58.607Z,99817.44
2019-03-13T15:43:27.943Z,99817.16
2019-03-13T15:45:57.311Z,99811.09
2019-03-13T15:48:26.718Z,99803.71
2019-03-13T15:50:56.149Z,99820.20
2019-03-13T15:53:25.549Z,99808.81
2019-03-13T15:55:54.988Z,99829.08
2019-03-13T15:58:24.330Z,99814.94
2019-03-13T16:00:53.768Z,99813.51
2019-03-13T16:03:23.099Z,99820.86
2019-03-13T16:05:54.398Z,99819.63
2019-03-13T16:08:23.733Z,99815.12
2019-03-13T16:10:53.167Z,99815.08
2019-03-13T16:13:22.598Z,99811.38
2019-03-13T16:15:52.004Z,99809.00
2019-03-13T16:18:21.451Z,99804.14
2019-03-13T16:20:50.788Z,99801.64
2019-03-13T16:23:20.242Z,99804.50
2019-03-13T16:25:49.651Z,99792.98
2019-03-13T16:28:19.091Z,99792.23
2019-03-13T16:30:50.151Z,99798.29
2019-03-13T16:33:19.601Z,99790.68
2019-03-13T16:35:49.022Z,99791.50
2019-03-13T16:38:18.390Z,99788.73
2019-03-13T16:40:47.814Z,99794.55
2019-03-13T16:43:18.260Z,99790.27
2019-03-13T16:45:47.679Z,99792.16
2019-03-13T16:48:17.134Z,99795.36
2019-03-13T16:50:46.548Z,99795.58
2019-03-13T16:53:16.067Z,99790.58
2019-03-13T16:55:45.485Z,99788.19
2019-03-13T16:58:14.933Z,99786.73
2019-03-13T17:00:44.750Z,99788.63
2019-03-13T17:03:14.191Z,99789.31
2019-03-13T17:05:43.603Z,99780.86
2019-03-13T17:08:13.077Z,99781.23
2019-03-13T17:10:42.507Z,99782.14
2019-03-13T17:13:11.963Z,99775.98
2019-03-13T17:15:41.752Z,99782.60
2019-03-13T17:18:11.321Z,99778.20
2019-03-13T17:20:42.168Z,99776.17
2019-03-13T17:23:11.689Z,99775.43
2019-03-13T17:25:41.101Z,99778.00
2019-03-13T17:28:10.472Z,99771.61
2019-03-13T17:30:39.885Z,99773.84
2019-03-13T17:33:09.329Z,99784.48
2019-03-13T17:35:38.769Z,99776.66
2019-03-13T17:38:08.217Z,99773.47
2019-03-13T17:40:37.792Z,99776.70
2019-03-13T17:43:07.608Z,99769.12
2019-03-13T17:45:37.028Z,99775.09
2019-03-13T17:48:06.759Z,99775.86
2019-03-13T17:50:36.174Z,99770.30
2019-03-13T17:53:05.615Z,99769.72
2019-03-13T17:55:34.968Z,99769.84
2019-03-13T17:58:04.420Z,99768.25
2019-03-13T18:00:40.161Z,99770.98
2019-03-13T18:03:09.553Z,99767.16
2019-03-13T18:05:38.960Z,99767.54
2019-03-13T18:08:08.403Z,99767.88
2019-03-13T18:10:37.816Z,99767.34
2019-03-13T18:13:07.293Z,99765.23
2019-03-13T18:15:36.687Z,99765.33
2019-03-13T18:18:06.141Z,99757.97
2019-03-13T18:20:35.583Z,99760.45
2019-03-13T18:23:05.031Z,99758.39
2019-03-13T18:25:34.448Z,99757.94
2019-03-13T18:28:03.889Z,99750.70
2019-03-13T18:30:36.360Z,99748.05
2019-03-13T18:33:05.828Z,99744.15
2019-03-13T18:35:35.250Z,99741.97
2019-03-13T18:38:04.703Z,99743.89
2019-03-13T18:40:34.152Z,99734.28
2019-03-13T18:43:03.589Z,99741.01
2019-03-13T18:45:37.119Z,99739.08
2019-03-13T18:48:06.893Z,99737.22
2019-03-13T18:50:36.312Z,99734.67
2019-03-13T18:53:05.686Z,99736.38
2019-03-13T18:55:37.708Z,99736.47
2019-03-13T18:58:07.359Z,99732.86
2019-03-13T19:00:37.163Z,99733.55
2019-03-13T19:03:07.401Z,99730.80
2019-03-13T19:05:37.850Z,99726.78
2019-03-13T19:08:07.342Z,99727.49
2019-03-13T19:10:36.833Z,99724.89
2019-03-13T19:13:06.353Z,99722.78
2019-03-13T19:15:35.784Z,99724.89
2019-03-13T19:18:05.197Z,99727.87
2019-03-13T19:20:34.654Z,99723.59
2019-03-13T19:23:04.576Z,99715.64
2019-03-13T19:25:34.005Z,99708.66
2019-03-13T19:28:03.417Z,99704.84
2019-03-13T19:30:37.686Z,99706.36
2019-03-13T19:33:07.187Z,99710.27
2019-03-13T19:35:36.648Z,99701.36
2019-03-13T19:38:12.961Z,99700.44
2019-03-13T19:40:42.331Z,99698.34
2019-03-13T19:43:11.762Z,99692.45
2019-03-13T19:45:42.354Z,99689.14
2019-03-13T19:48:11.812Z,99695.39
2019-03-13T19:50:41.299Z,99682.67
2019-03-13T19:53:10.703Z,99681.95
2019-03-13T19:55:40.147Z,99674.86
2019-03-13T19:58:09.566Z,99678.42
2019-03-13T20:00:39.007Z,99675.66
2019-03-13T20:03:10.953Z,99679.35
2019-03-13T20:05:46.052Z,99675.07
2019-03-13T20:08:13.714Z,99675.07
2019-03-13T20:10:42.526Z,99664.66
2019-03-13T20:13:11.875Z,99665.70
2019-03-13T20:15:41.246Z,99660.96
2019-03-13T20:18:10.588Z,99672.59
2019-03-13T20:20:39.963Z,99663.85
2019-03-13T20:23:11.778Z,99662.42
2019-03-13T20:25:41.219Z,99659.83
2019-03-13T20:28:10.714Z,99659.45
2019-03-13T20:30:40.578Z,99659.36
2019-03-13T20:33:09.993Z,99657.01
2019-03-13T20:35:39.488Z,99654.28
2019-03-13T20:38:08.861Z,99654.03
2019-03-13T20:40:38.221Z,99640.92
2019-03-13T20:43:07.631Z,99640.08
2019-03-13T20:45:37.058Z,99642.56
2019-03-13T20:48:06.468Z,99646.97
2019-03-13T20:50:37.778Z,99646.97
2019-03-13T20:53:06.866Z,99645.66
2019-03-13T20:55:36.307Z,99638.98
2019-03-13T20:58:05.659Z,99639.70
2019-03-13T21:00:35.213Z,99633.31
2019-03-13T21:03:04.587Z,99641.01
2019-03-13T21:05:33.967Z,99638.62
2019-03-13T21:08:03.299Z,99623.20
2019-03-13T21:10:32.740Z,99621.35
2019-03-13T21:13:02.157Z,99619.30
2019-03-13T21:15:31.600Z,99615.14
2019-03-13T21:18:00.936Z,99611.23
2019-03-13T21:20:30.379Z,99612.29
2019-03-13T21:22:59.789Z,99609.81
2019-03-13T21:25:29.159Z,99600.70
2019-03-13T21:27:58.575Z,99602.21
2019-03-13T21:30:30.720Z,99604.53
2019-03-13T21:33:00.151Z,99596.00
2019-03-13T21:35:29.587Z,99608.89
2019-03-13T21:37:58.934Z,99599.41
2019-03-13T21:40:28.539Z,99594.78
2019-03-13T21:42:57.938Z,99593.70
2019-03-13T21:45:40.083Z,99590.72
2019-03-13T21:47:58.503Z,99591.09
2019-03-13T21:50:27.888Z,99589.88
2019-03-13T21:52:57.295Z,99592.02
2019-03-13T21:55:27.480Z,99592.39
2019-03-13T21:57:57.353Z,99591.81
2019-03-13T22:00:27.442Z,99590.51
2019-03-13T22:02:56.807Z,99588.49
2019-03-13T22:05:27.440Z,99582.95
2019-03-13T22:07:57.023Z,99586.39
2019-03-13T22:10:26.441Z,99588.41
2019-03-13T22:12:55.870Z,99582.27
2019-03-13T22:15:25.201Z,99570.56
2019-03-13T22:17:54.653Z,99575.30
2019-03-13T22:20:23.989Z,99571.02
2019-03-13T22:22:53.419Z,99574.13
2019-03-13T22:25:22.832Z,99567.06
2019-03-13T22:27:52.263Z,99567.66
2019-03-13T22:30:22.545Z,99568.62
2019-03-13T22:32:52.032Z,99571.09
2019-03-13T22:35:21.366Z,99569.33
2019-03-13T22:37:50.731Z,99567.09
2019-03-13T22:40:20.138Z,99569.11
2019-03-13T22:42:49.570Z,99563.20
2019-03-13T22:45:19.919Z,99561.89
2019-03-13T22:47:49.357Z,99555.60
2019-03-13T22:50:23.669Z,99544.81
2019-03-13T22:52:53.181Z,99547.05
2019-03-13T22:55:22.583Z,99553.21
2019-03-13T22:57:52.015Z,99550.14
2019-03-13T23:00:25.325Z,99545.03
2019-03-13T23:02:54.752Z,99543.73
2019-03-13T23:05:24.168Z,99527.39
2019-03-13T23:07:53.543Z,99530.59
2019-03-13T23:10:25.752Z,99516.83
2019-03-13T23:12:55.185Z,99524.76
2019-03-13T23:15:24.598Z,99522.99
2019-03-13T23:17:53.980Z,99516.11
2019-03-13T23:20:23.399Z,99524.30
2019-03-13T23:22:52.758Z,99521.16
2019-03-13T23:25:22.123Z,99522.00
2019-03-13T23:27:51.574Z,99519.15
2019-03-13T23:30:20.933Z,99515.00
2019-03-13T23:32:50.342Z,99518.48
2019-03-13T23:35:19.781Z,99520.97
2019-03-13T23:37:49.121Z,99518.70
2019-03-13T23:40:18.500Z,99515.17
2019-03-13T23:42:47.906Z,99519.54
2019-03-13T23:45:17.336Z,99514.21
2019-03-13T23:47:46.696Z,99513.75
2019-03-13T23:50:16.099Z,99510.56
2019-03-13T23:52:46.094Z,99508.91
2019-03-13T23:55:15.499Z,99511.36
2019-03-13T23:57:45.200Z,99498.26
